KCUB/CUB METAR and TAF weather

Enter ICAO airport designator
Station Type Date Time Source
KCUB METAR 2021/02/28 02:53 UTC NOAA

KCUB 280253Z AUTO 00000KT 6SM HZ SCT065 18/14 A3022 RMK AO2 SLP231 T01780139 53014


Station Type Date Time Source
KCUB Decoded METAR 2021/02/28 02:53 UTC NOAA

OWENS DOWNTOWN AIRPORT, SC, United States (KCUB) 33-58N 081-00W 56M
Feb 27, 2021 - 09:53 PM EST / 2021.02.28 0253 UTC
Wind: Calm:0
Visibility: 6 mile(s):0
Sky conditions: partly cloudy
Weather: haze
Temperature: 64.0 F (17.8 C)
Dew Point: 57.0 F (13.9 C)
Relative Humidity: 77%
Pressure (altimeter): 30.22 in. Hg (1023 hPa)
Pressure tendency: 0.04 inches (1.4 hPa) higher than three hours ago
ob: KCUB 280253Z AUTO 00000KT 6SM HZ SCT065 18/14 A3022 RMK AO2 SLP231 T01780139 53014
cycle: 3

Station Type Date Time Source
KCUB TAF 2021/02/28 03:58 UTC NOAA

TAF
AMD KCUB 280256Z 2803/2824 VRB03KT P6SM SCT200
FM280800 VRB03KT 5SM BR SCT004 OVC008
FM281400 20006KT P6SM BKN010 BKN035
FM281600 21010KT P6SM SCT015 BKN035
FM282100 22008KT P6SM SCT040

Example: see airport list